Time;durP1;ratioP1;P1;durP2;ratioP2;P2;SDS_P1;SDS_P2;PMS_P1;PMS_P2;Temp;Humidity;BMP_temperature;BMP_pressure;BME280_temperature;BME280_humidity;BME280_pressure;Samples;Min_cycle;Max_cycle;Signal;HPM_P1;HPM_P2
2021/09/30 00:02:14;;;;;;;11.48;8.07;;;;;;;24.50;44.42;95639.50;5340609;22;20053;-71
2021/09/30 00:04:40;;;;;;;10.13;6.38;;;;;;;24.49;44.37;95643.47;5024206;28;20040;-71
2021/09/30 00:07:07;;;;;;;8.23;6.55;;;;;;;24.49;44.38;95643.47;5026339;28;20033;-71
2021/09/30 00:09:34;;;;;;;8.02;6.63;;;;;;;24.47;44.39;95640.50;5025540;28;20036;-71
2021/09/30 00:12:07;;;;;;;9.32;6.43;;;;;;;24.45;44.43;95643.75;5025656;28;20026;-71
2021/09/30 00:33:51;;;;;;;7.50;5.13;;;;;;;24.29;44.25;95608.28;5044945;28;20040;-71
2021/09/30 00:47:04;;;;;;;8.18;5.72;;;;;;;24.38;44.38;95621.66;5044469;28;20035;-71
2021/09/30 01:20:17;;;;;;;6.10;4.90;;;;;;;24.21;44.41;95601.81;5047150;28;20071;-71
2021/09/30 02:18:19;;;;;;;5.35;3.88;;;;;;;24.24;44.14;95621.91;5032004;28;20083;-70
2021/09/30 02:21:43;;;;;;;6.47;4.30;;;;;;;24.23;43.97;95636.78;4965295;28;20015;-70
2021/09/30 02:29:45;;;;;;;6.30;4.35;;;;;;;24.22;44.12;95641.53;5045244;28;20106;-70
2021/09/30 02:59:33;;;;;;;5.28;4.07;;;;;;;24.17;44.11;95634.09;5031052;28;20071;-71
2021/09/30 03:01:58;;;;;;;5.13;3.97;;;;;;;24.17;44.45;95645.00;5046199;28;20028;-71
2021/09/30 03:04:23;;;;;;;4.57;3.85;;;;;;;24.16;44.39;95643.53;5044974;28;20052;-71
2021/09/30 03:06:49;;;;;;;5.32;3.67;;;;;;;24.16;44.25;95642.78;5046593;28;20025;-71
2021/09/30 03:09:18;;;;;;;5.93;3.70;;;;;;;24.02;44.29;95633.63;5049273;28;20024;-71
2021/09/30 03:11:49;;;;;;;4.35;3.53;;;;;;;24.15;44.13;95647.47;5038150;28;20025;-71
2021/09/30 03:14:14;;;;;;;5.65;4.25;;;;;;;24.01;44.11;95637.59;5068847;28;20028;-71
2021/09/30 03:16:44;;;;;;;5.25;4.00;;;;;;;24.14;44.32;95640.56;5060351;28;20036;-70
2021/09/30 03:19:19;;;;;;;5.95;4.22;;;;;;;24.00;43.96;95636.09;5060661;28;20124;-71
2021/09/30 03:24:31;;;;;;;5.72;3.83;;;;;;;24.00;44.08;95636.09;5044996;28;20031;-71
2021/09/30 03:26:56;;;;;;;5.57;3.67;;;;;;;24.11;44.19;95651.72;5027202;28;20132;-71
2021/09/30 03:29:22;;;;;;;6.75;4.57;;;;;;;24.12;44.13;95659.41;5046389;28;20411;-70
2021/09/30 03:31:47;;;;;;;6.20;4.93;;;;;;;24.03;44.39;95650.72;5046833;28;20028;-70
2021/09/30 03:34:13;;;;;;;6.53;5.00;;;;;;;24.12;44.14;95653.94;5027891;28;20044;-71
2021/09/30 03:36:38;;;;;;;6.93;4.82;;;;;;;24.11;44.42;95652.47;5044276;28;20025;-71
2021/09/30 03:39:04;;;;;;;6.55;4.72;;;;;;;24.04;44.28;95636.59;5027516;28;20490;-71
2021/09/30 03:41:29;;;;;;;6.45;5.13;;;;;;;24.10;44.28;95640.06;5045452;28;20051;-71
2021/09/30 03:43:55;;;;;;;6.18;4.22;;;;;;;24.11;44.40;95641.56;5045381;28;20048;-70
2021/09/30 03:46:20;;;;;;;6.28;4.32;;;;;;;24.11;44.12;95647.00;5045205;28;20029;-71
2021/09/30 03:48:53;;;;;;;5.97;5.13;;;;;;;24.06;44.58;95732.31;5045250;28;20041;-71
2021/09/30 03:52:07;;;;;;;6.57;4.53;;;;;;;24.11;44.22;95646.25;5059920;28;20116;-71
2021/09/30 03:59:19;;;;;;;6.70;4.68;;;;;;;24.11;44.24;95652.47;5065045;28;20473;-71
2021/09/30 04:01:55;;;;;;;7.28;4.45;;;;;;;24.08;44.10;95637.09;5065545;28;20020;-71
2021/09/30 04:04:22;;;;;;;5.28;4.50;;;;;;;24.08;44.17;95648.00;5065223;28;20059;-71
2021/09/30 04:06:48;;;;;;;7.82;5.10;;;;;;;24.09;44.21;95649.47;5065271;28;20020;-71
2021/09/30 04:09:14;;;;;;;5.68;4.90;;;;;;;24.08;44.33;95647.25;5065211;28;20028;-71
2021/09/30 04:11:41;;;;;;;5.63;4.25;;;;;;;24.07;44.24;95651.97;5065031;28;20517;-71
2021/09/30 04:14:07;;;;;;;5.82;4.18;;;;;;;24.07;44.23;95651.97;5065096;28;20028;-70
2021/09/30 04:16:32;;;;;;;5.35;3.88;;;;;;;24.08;44.25;95663.63;5065030;28;20028;-71
2021/09/30 04:18:58;;;;;;;6.80;4.72;;;;;;;24.07;44.35;95657.41;5065244;28;20024;-71
2021/09/30 04:21:24;;;;;;;5.50;4.15;;;;;;;24.06;44.48;95660.66;5057328;28;20029;-71
2021/09/30 04:23:49;;;;;;;6.43;3.88;;;;;;;24.06;44.16;95655.19;5044966;28;20028;-71
2021/09/30 04:26:15;;;;;;;6.43;3.97;;;;;;;24.05;44.30;95659.91;5044485;28;20029;-71
2021/09/30 04:28:40;;;;;;;6.18;4.60;;;;;;;24.05;44.21;95648.25;5044947;28;20602;-71
2021/09/30 04:31:06;;;;;;;6.78;3.95;;;;;;;24.05;44.28;95659.91;5047815;28;20103;-71
2021/09/30 04:33:31;;;;;;;5.63;4.20;;;;;;;24.04;44.10;95663.88;5048854;28;20860;-71
2021/09/30 04:35:57;;;;;;;4.97;3.83;;;;;;;24.05;44.28;95665.38;5047829;28;20033;-71
2021/09/30 04:38:22;;;;;;;6.53;3.60;;;;;;;24.05;44.24;95659.16;5047930;28;20029;-71
2021/09/30 04:40:48;;;;;;;7.25;4.45;;;;;;;24.06;44.22;95661.38;5048324;28;20033;-71
2021/09/30 04:43:13;;;;;;;6.13;3.78;;;;;;;24.02;44.38;95655.44;5048428;28;20098;-71
2021/09/30 04:45:39;;;;;;;5.72;4.15;;;;;;;24.04;44.23;95674.78;5043940;28;20047;-72
2021/09/30 04:48:04;;;;;;;4.63;3.70;;;;;;;24.02;44.34;95666.38;5028635;28;20017;-70
2021/09/30 04:50:30;;;;;;;6.68;4.47;;;;;;;24.07;44.46;95673.78;5037313;28;20427;-73
2021/09/30 04:52:58;;;;;;;5.35;4.00;;;;;;;24.08;44.58;95669.84;5034950;28;20031;-73
2021/09/30 04:55:24;;;;;;;6.55;4.15;;;;;;;24.08;44.53;95675.28;5036015;28;20021;-75
2021/09/30 04:57:49;;;;;;;7.40;4.13;;;;;;;23.98;44.42;95654.94;5036067;28;20079;-75
2021/09/30 05:00:15;;;;;;;4.68;3.47;;;;;;;24.11;44.58;95668.84;5030181;28;20471;-75
2021/09/30 05:02:40;;;;;;;6.18;4.03;;;;;;;24.14;44.73;95672.53;5033204;28;20052;-75
2021/09/30 05:05:07;;;;;;;6.05;4.32;;;;;;;24.14;44.28;95673.31;5030919;28;20033;-74
2021/09/30 05:07:32;;;;;;;7.30;4.10;;;;;;;24.22;44.66;95668.81;5039021;28;20758;-75
2021/09/30 05:10:00;;;;;;;7.35;4.50;;;;;;;24.27;44.27;95692.63;5041311;28;20092;-73
2021/09/30 05:12:26;;;;;;;8.27;4.10;;;;;;;24.30;44.40;95686.16;5034971;28;20029;-74
2021/09/30 05:14:52;;;;;;;8.40;4.43;;;;;;;24.42;43.79;95682.97;5035137;28;20038;-74
2021/09/30 05:17:17;;;;;;;5.63;3.80;;;;;;;24.48;43.68;95680.97;5060043;28;20029;-75
2021/09/30 05:19:43;;;;;;;7.90;4.97;;;;;;;24.48;43.63;95680.19;5035557;28;20037;-75
2021/09/30 05:22:08;;;;;;;7.28;4.28;;;;;;;24.67;43.64;95692.06;5043229;28;20036;-76
2021/09/30 05:24:34;;;;;;;7.93;4.50;;;;;;;24.77;43.46;95696.00;5025352;28;20522;-75
2021/09/30 05:26:59;;;;;;;7.00;4.35;;;;;;;24.87;43.42;95690.53;5039709;28;20021;-76
2021/09/30 05:29:25;;;;;;;6.43;4.40;;;;;;;24.95;43.82;95691.47;5028739;28;20558;-77
2021/09/30 05:31:50;;;;;;;8.15;4.90;;;;;;;25.01;44.09;95697.69;5029666;28;20021;-79
2021/09/30 05:34:16;;;;;;;6.63;4.35;;;;;;;24.98;45.07;95679.53;5028841;28;20112;-80
2021/09/30 05:36:41;;;;;;;8.02;4.78;;;;;;;25.19;44.15;95705.31;5047287;28;20116;-80
2021/09/30 05:39:07;;;;;;;8.38;4.95;;;;;;;25.19;45.78;95683.44;5028773;28;20678;-79
2021/09/30 05:41:32;;;;;;;9.35;4.20;;;;;;;25.30;44.86;95694.31;5045538;28;20056;-75
2021/09/30 05:44:06;;;;;;;7.72;4.47;;;;;;;25.19;43.71;95683.44;5054135;28;20030;-77
2021/09/30 05:46:36;;;;;;;7.13;4.75;;;;;;;25.23;43.25;95678.47;5050097;28;20123;-78
2021/09/30 05:49:02;;;;;;;5.95;4.07;;;;;;;25.44;43.00;95693.22;5052959;28;20024;-78
2021/09/30 05:51:27;;;;;;;7.60;4.85;;;;;;;25.50;42.73;95707.63;5031996;28;20034;-78
2021/09/30 05:53:52;;;;;;;8.52;4.90;;;;;;;25.51;42.28;95698.16;5046780;28;20515;-75
2021/09/30 05:56:18;;;;;;;8.18;4.90;;;;;;;25.57;41.66;95701.63;5038796;28;20443;-76
2021/09/30 05:58:44;;;;;;;7.28;4.68;;;;;;;25.62;41.44;95703.56;5038825;28;20395;-80
2021/09/30 06:01:31;;;;;;;7.78;4.97;;;;;;;25.70;41.37;95710.03;5032814;28;20087;-80
2021/09/30 06:12:10;;;;;;;6.80;4.78;;;;;;;25.84;40.68;95704.94;5039819;28;20035;-77
2021/09/30 06:14:38;;;;;;;8.20;4.70;;;;;;;25.79;41.26;95690.56;5048154;28;20040;-75
2021/09/30 06:17:04;;;;;;;6.95;5.10;;;;;;;25.97;40.32;95702.34;5056103;28;20029;-78
2021/09/30 06:19:29;;;;;;;8.98;5.03;;;;;;;26.01;40.57;95708.28;5037584;28;20037;-78
2021/09/30 06:21:55;;;;;;;6.63;4.95;;;;;;;25.89;40.56;95700.69;5048701;28;20248;-78
2021/09/30 06:24:21;;;;;;;7.88;4.90;;;;;;;26.00;40.55;95712.28;5044769;28;20036;-74
2021/09/30 06:26:47;;;;;;;6.55;5.05;;;;;;;26.08;40.32;95724.13;5033967;28;20032;-71
2021/09/30 06:29:13;;;;;;;9.38;5.68;;;;;;;26.16;40.46;95719.63;5034208;28;20045;-74
2021/09/30 06:31:38;;;;;;;12.02;6.97;;;;;;;25.97;38.42;95713.28;5038643;28;20106;-81
2021/09/30 06:34:04;;;;;;;8.35;6.03;;;;;;;25.84;39.90;95721.38;5049595;28;20032;-72
2021/09/30 06:36:29;;;;;;;7.65;5.75;;;;;;;25.91;40.14;95720.06;5039542;28;20033;-72
2021/09/30 06:38:55;;;;;;;8.70;5.63;;;;;;;26.00;40.46;95717.75;5043050;28;20021;-74
2021/09/30 06:41:20;;;;;;;7.55;4.95;;;;;;;25.83;40.53;95697.25;5045060;28;20098;-74
2021/09/30 06:43:46;;;;;;;10.60;5.60;;;;;;;25.85;40.06;95700.94;5040862;28;20033;-74
2021/09/30 06:46:11;;;;;;;8.73;4.90;;;;;;;25.98;40.08;95720.25;5042488;28;20079;-74
2021/09/30 06:48:37;;;;;;;12.13;5.70;;;;;;;25.96;40.14;95722.78;5042169;28;20025;-73
2021/09/30 06:51:03;;;;;;;9.60;5.43;;;;;;;25.93;40.03;95733.97;5041282;28;20048;-74
2021/09/30 06:53:28;;;;;;;13.05;6.95;;;;;;;25.90;40.21;95733.00;5038054;28;20044;-74
2021/09/30 06:55:58;;;;;;;12.05;4.97;;;;;;;25.86;40.84;95735.28;5043897;28;20507;-71
2021/09/30 06:58:25;;;;;;;11.48;5.97;;;;;;;25.75;40.61;95728.38;5047741;28;20504;-70
2021/09/30 07:00:56;;;;;;;12.95;5.95;;;;;;;25.75;40.96;95733.84;5049991;28;20471;-74
2021/09/30 07:03:21;;;;;;;11.32;5.00;;;;;;;25.72;40.62;95730.13;5043937;28;20075;-74
2021/09/30 07:05:47;;;;;;;11.73;5.45;;;;;;;25.65;41.09;95729.94;5040357;28;20098;-74
2021/09/30 07:08:13;;;;;;;9.98;5.85;;;;;;;25.50;40.81;95707.63;5042591;28;20044;-74
2021/09/30 07:10:38;;;;;;;8.32;5.32;;;;;;;25.60;40.49;95733.41;5043516;28;20695;-73
2021/09/30 07:13:04;;;;;;;10.70;6.13;;;;;;;25.58;41.14;95735.94;5049711;28;20059;-74
2021/09/30 07:15:29;;;;;;;9.20;5.63;;;;;;;25.51;41.06;95741.94;5045861;28;20064;-74
2021/09/30 07:17:56;;;;;;;8.45;5.07;;;;;;;25.45;40.87;95733.00;5044411;28;20498;-74
2021/09/30 07:20:22;;;;;;;12.02;5.97;;;;;;;25.45;40.94;95728.28;5046259;28;20052;-75
2021/09/30 07:22:47;;;;;;;11.50;5.57;;;;;;;25.42;40.89;95739.50;5045629;28;20029;-75
2021/09/30 07:25:12;;;;;;;9.02;5.63;;;;;;;25.38;40.88;95734.28;5046745;28;20032;-73
2021/09/30 07:27:38;;;;;;;12.23;6.00;;;;;;;25.35;41.39;95740.00;5045053;28;20035;-74
2021/09/30 07:30:04;;;;;;;9.18;5.60;;;;;;;25.31;41.13;95750.50;5048389;28;20037;-74
2021/09/30 07:32:30;;;;;;;8.75;5.32;;;;;;;25.28;41.00;95740.56;5045652;28;20067;-74
2021/09/30 07:34:56;;;;;;;9.23;5.95;;;;;;;25.21;41.44;95735.63;5043586;28;20033;-74
2021/09/30 07:37:21;;;;;;;8.27;5.20;;;;;;;25.21;41.55;95746.53;5039079;28;20099;-74
2021/09/30 07:39:46;;;;;;;9.98;5.50;;;;;;;25.21;41.28;95740.34;5042871;28;20025;-74
2021/09/30 07:42:12;;;;;;;11.00;5.60;;;;;;;25.16;41.19;95733.66;5045027;28;20044;-74
2021/09/30 07:44:37;;;;;;;9.10;5.63;;;;;;;25.14;41.43;95741.63;5044375;28;20043;-74
2021/09/30 07:47:03;;;;;;;11.88;6.20;;;;;;;25.11;41.25;95742.63;5043371;28;20056;-74
2021/09/30 07:49:29;;;;;;;10.65;5.82;;;;;;;24.92;41.02;95714.34;5043927;28;20037;-74
2021/09/30 07:51:55;;;;;;;7.40;5.20;;;;;;;25.07;41.42;95742.13;5042575;28;20044;-74
2021/09/30 07:54:20;;;;;;;9.15;5.70;;;;;;;25.06;40.92;95739.91;5043212;28;20044;-74
2021/09/30 07:56:45;;;;;;;10.93;5.55;;;;;;;24.93;41.22;95732.22;5044169;28;20422;-75
2021/09/30 07:59:11;;;;;;;8.70;5.60;;;;;;;25.02;41.17;95744.88;5051696;28;20024;-75
2021/09/30 08:01:36;;;;;;;9.50;6.00;;;;;;;25.00;41.18;95737.19;5051354;28;20435;-74
2021/09/30 08:04:03;;;;;;;11.75;5.40;;;;;;;24.99;41.65;95746.66;5053862;28;20049;-75
2021/09/30 08:06:29;;;;;;;9.05;5.43;;;;;;;24.99;41.88;95738.44;5052054;28;20033;-74
2021/09/30 08:08:55;;;;;;;8.02;4.68;;;;;;;24.98;41.33;95745.13;5047066;28;20037;-74
2021/09/30 08:11:20;;;;;;;7.30;5.10;;;;;;;24.97;41.14;95738.16;5055851;28;20021;-76
2021/09/30 08:13:46;;;;;;;8.57;5.25;;;;;;;24.97;41.39;95738.16;5057393;28;20091;-74
2021/09/30 08:16:13;;;;;;;8.20;5.45;;;;;;;24.95;41.08;95740.66;5053368;28;20029;-74
2021/09/30 08:18:39;;;;;;;10.30;5.28;;;;;;;24.96;40.74;95742.16;5048476;28;20703;-74
2021/09/30 08:21:04;;;;;;;7.55;4.80;;;;;;;24.94;41.14;95739.16;5046134;28;20098;-73
2021/09/30 08:23:30;;;;;;;9.40;5.20;;;;;;;24.92;41.11;95735.47;5048885;28;20024;-73
2021/09/30 08:25:55;;;;;;;8.65;5.13;;;;;;;24.92;41.13;95741.66;5047188;28;20024;-73
2021/09/30 08:28:21;;;;;;;7.20;5.00;;;;;;;24.93;41.03;95737.69;5047371;28;20048;-73
2021/09/30 08:30:47;;;;;;;7.63;4.80;;;;;;;24.92;40.95;95741.66;5043233;28;20039;-73
2021/09/30 08:33:12;;;;;;;8.52;4.85;;;;;;;24.91;41.04;95751.09;5043164;28;20053;-73
2021/09/30 08:35:38;;;;;;;8.68;4.80;;;;;;;24.90;41.00;95743.41;5045778;28;20036;-73
2021/09/30 08:38:04;;;;;;;8.68;5.10;;;;;;;24.90;41.08;95743.41;5046659;28;20016;-75
2021/09/30 08:40:29;;;;;;;7.85;5.40;;;;;;;24.88;41.03;95740.44;5044430;28;20031;-73
2021/09/30 08:42:55;;;;;;;11.63;4.95;;;;;;;24.88;41.01;95746.63;5043631;28;20032;-73
2021/09/30 08:45:20;;;;;;;9.38;5.00;;;;;;;24.89;40.95;95744.66;5042659;28;20033;-72
2021/09/30 08:47:59;;;;;;;6.55;4.50;;;;;;;24.89;40.96;95748.13;5046612;28;20041;-73
2021/09/30 08:50:25;;;;;;;10.02;5.25;;;;;;;24.89;41.12;95741.94;5043185;28;20028;-73
2021/09/30 08:52:50;;;;;;;8.68;5.18;;;;;;;24.88;41.11;95735.69;5046140;28;20112;-73
2021/09/30 08:55:16;;;;;;;8.52;5.85;;;;;;;24.88;41.20;95741.16;5046151;28;20037;-73
2021/09/30 08:57:48;;;;;;;7.68;4.90;;;;;;;24.85;40.89;95736.72;5044920;28;20815;-74
2021/09/30 09:00:14;;;;;;;9.55;5.43;;;;;;;24.88;41.08;95741.16;5044814;28;20075;-73
2021/09/30 09:02:44;;;;;;;10.48;5.47;;;;;;;24.87;41.04;95734.22;5042401;28;20064;-69
2021/09/30 09:05:09;;;;;;;8.00;4.93;;;;;;;24.86;41.52;95732.75;5045317;28;20102;-70
2021/09/30 09:07:35;;;;;;;7.65;5.10;;;;;;;24.87;41.22;95734.22;5045337;28;20057;-70
2021/09/30 09:10:05;;;;;;;8.00;5.13;;;;;;;24.88;41.49;95741.16;5047119;28;20052;-71
2021/09/30 09:12:31;;;;;;;7.40;4.63;;;;;;;24.74;41.45;95714.16;5047578;28;20033;-71
2021/09/30 09:14:58;;;;;;;6.95;5.05;;;;;;;24.89;41.65;95734.47;5046592;28;20032;-70
2021/09/30 09:17:23;;;;;;;7.78;4.93;;;;;;;24.89;41.27;95737.19;5047153;28;20033;-70
2021/09/30 09:19:57;;;;;;;9.82;5.15;;;;;;;24.78;41.50;95724.81;5044417;28;20086;-72
2021/09/30 09:22:30;;;;;;;7.53;5.20;;;;;;;24.91;41.69;95737.44;5041062;28;20025;-72
2021/09/30 09:25:08;;;;;;;7.15;4.85;;;;;;;24.92;41.69;95736.19;5047116;28;20036;-73
2021/09/30 09:27:53;;;;;;;6.55;4.65;;;;;;;24.92;41.63;95736.19;5045948;28;20041;-73
2021/09/30 09:30:29;;;;;;;8.68;5.07;;;;;;;24.96;42.03;95742.16;5046471;28;20037;-72
2021/09/30 09:33:05;;;;;;;8.63;4.85;;;;;;;25.00;41.93;95736.44;5041120;28;20140;-73
2021/09/30 09:36:04;;;;;;;9.75;5.43;;;;;;;24.90;41.90;95711.38;5043236;28;20029;-73
2021/09/30 09:38:46;;;;;;;6.93;4.70;;;;;;;25.07;41.37;95742.13;5041579;28;20104;-73
2021/09/30 09:41:16;;;;;;;7.88;5.28;;;;;;;25.16;41.13;95733.66;5045710;28;20414;-73
2021/09/30 09:43:44;;;;;;;8.10;5.50;;;;;;;25.10;41.00;95730.19;5038860;28;20033;-72
2021/09/30 09:46:10;;;;;;;9.75;5.15;;;;;;;25.31;40.57;95734.09;5055617;28;20435;-73
2021/09/30 09:48:36;;;;;;;8.93;4.72;;;;;;;25.20;40.44;95734.16;5043032;28;20033;-72
2021/09/30 09:51:04;;;;;;;7.57;5.05;;;;;;;25.48;40.37;95737.47;5044474;28;20108;-72
2021/09/30 09:53:30;;;;;;;9.43;5.03;;;;;;;25.54;40.39;95735.44;5043302;28;20529;-72
2021/09/30 09:56:11;;;;;;;8.52;5.15;;;;;;;25.65;40.07;95740.88;5040680;28;20017;-74
2021/09/30 09:58:55;;;;;;;8.65;5.07;;;;;;;25.74;39.85;95748.78;5041763;28;20053;-74
2021/09/30 10:01:22;;;;;;;9.80;4.78;;;;;;;25.85;39.75;95744.72;5041479;28;20045;-73
2021/09/30 10:03:50;;;;;;;7.07;4.72;;;;;;;25.76;39.47;95724.41;5043975;28;20726;-73
2021/09/30 10:06:15;;;;;;;6.97;4.55;;;;;;;25.97;39.03;95735.19;5040143;28;20025;-73
2021/09/30 10:08:41;;;;;;;6.68;4.60;;;;;;;26.05;38.96;95736.13;5035374;28;20030;-74
2021/09/30 10:11:06;;;;;;;7.03;4.60;;;;;;;26.05;39.17;95725.19;5040533;28;20410;-74
2021/09/30 10:13:35;;;;;;;6.95;4.82;;;;;;;26.15;38.87;95740.03;5038928;28;21497;-73
2021/09/30 10:16:00;;;;;;;8.73;4.82;;;;;;;26.14;38.82;95711.16;5044802;28;20022;-71
2021/09/30 10:18:27;;;;;;;7.07;4.60;;;;;;;26.30;39.00;95724.00;5047451;28;20087;-71
2021/09/30 10:20:52;;;;;;;6.55;4.65;;;;;;;26.33;38.44;95728.44;5027290;28;20025;-71
2021/09/30 10:23:24;;;;;;;6.75;4.50;;;;;;;26.39;38.05;95731.88;5027638;28;20021;-71
2021/09/30 10:25:49;;;;;;;6.82;3.88;;;;;;;26.19;38.45;95691.22;5026904;28;20140;-71
2021/09/30 10:28:15;;;;;;;6.82;4.45;;;;;;;26.48;38.22;95729.53;5055160;28;20052;-72
2021/09/30 10:30:42;;;;;;;6.65;4.35;;;;;;;26.55;38.61;95728.25;5044225;28;20029;-72
2021/09/30 10:33:09;;;;;;;8.35;4.80;;;;;;;26.56;38.11;95735.19;5028813;28;20520;-72
2021/09/30 10:35:37;;;;;;;10.10;4.43;;;;;;;26.58;38.06;95732.72;5044249;28;21531;-72
2021/09/30 10:38:22;;;;;;;15.85;4.63;;;;;;;26.64;37.69;95736.13;5026719;28;20463;-72
2021/09/30 10:40:59;;;;;;;6.25;4.18;;;;;;;26.73;37.77;95722.09;5031499;28;20112;-72
2021/09/30 10:43:25;;;;;;;6.70;4.10;;;;;;;26.74;37.87;95740.00;5038691;28;20755;-73
2021/09/30 10:45:50;;;;;;;8.32;4.35;;;;;;;26.71;37.68;95735.56;5034282;28;20029;-73
2021/09/30 10:48:31;;;;;;;9.82;5.25;;;;;;;26.80;37.36;95733.97;5045019;28;20479;-72
2021/09/30 10:51:11;;;;;;;8.40;4.85;;;;;;;26.80;37.95;95728.47;5055216;28;20047;-72
2021/09/30 10:53:45;;;;;;;;;;;;;;;26.82;37.80;95725.97;5040662;28;20162;-74
2021/09/30 10:56:41;;;;;;;7.15;4.50;;;;;;;26.81;37.19;95729.22;5052146;28;19935;-73
2021/09/30 10:59:09;;;;;;;6.95;3.92;;;;;;;26.81;37.47;95729.22;5058023;28;20036;-72
2021/09/30 11:01:41;;;;;;;6.22;4.15;;;;;;;26.89;37.04;95736.38;5042717;28;20041;-73
2021/09/30 11:04:06;;;;;;;5.93;4.38;;;;;;;26.96;37.08;95735.06;5043283;28;20067;-71
2021/09/30 11:06:32;;;;;;;7.28;4.75;;;;;;;26.97;37.32;95720.84;5053084;28;20029;-71
2021/09/30 11:09:16;;;;;;;6.00;4.20;;;;;;;27.03;37.05;95729.00;5054307;28;20020;-71
2021/09/30 11:12:12;;;;;;;8.75;4.70;;;;;;;26.83;37.32;95711.00;5050709;28;20101;-73
2021/09/30 11:14:54;;;;;;;7.30;4.65;;;;;;;27.00;37.36;95725.28;5049294;28;20491;-72
2021/09/30 11:17:35;;;;;;;7.43;4.60;;;;;;;26.86;37.07;95703.72;5067054;28;20171;-72
2021/09/30 11:20:29;;;;;;;7.22;4.60;;;;;;;26.96;37.35;95730.31;5016596;28;20031;-71
2021/09/30 11:22:55;;;;;;;7.90;5.40;;;;;;;26.76;37.37;95705.34;5056511;28;20430;-72
2021/09/30 11:25:20;;;;;;;6.82;4.55;;;;;;;26.90;37.42;95737.84;5051716;28;20024;-72
2021/09/30 11:27:45;;;;;;;9.18;5.40;;;;;;;26.80;37.74;95727.72;5051486;28;20021;-72
2021/09/30 11:30:19;;;;;;;7.97;5.35;;;;;;;26.78;37.46;95720.00;5053802;28;20572;-71
2021/09/30 11:32:45;;;;;;;9.25;4.65;;;;;;;26.75;37.82;95714.09;5051178;28;20441;-72
2021/09/30 11:35:10;;;;;;;9.30;5.10;;;;;;;26.69;37.95;95727.13;5055875;28;20021;-72
2021/09/30 11:37:40;;;;;;;6.97;4.50;;;;;;;26.49;37.53;95703.66;5050253;28;20017;-71
2021/09/30 11:40:15;;;;;;;7.63;5.07;;;;;;;26.42;37.99;95698.00;5048983;28;20108;-72
2021/09/30 11:42:42;;;;;;;7.25;4.97;;;;;;;26.51;37.91;95782.56;5042178;28;20040;-72
2021/09/30 11:45:21;;;;;;;8.27;5.68;;;;;;;26.47;38.28;95717.13;5054466;28;20817;-72
2021/09/30 11:47:46;;;;;;;7.70;5.05;;;;;;;26.42;37.92;95714.44;5049688;28;20036;-72
2021/09/30 11:50:18;;;;;;;8.27;5.50;;;;;;;26.36;38.42;95711.72;5053381;28;20430;-72
2021/09/30 11:52:44;;;;;;;10.48;5.30;;;;;;;26.29;38.86;95723.25;5045142;28;20060;-71
2021/09/30 11:55:16;;;;;;;8.73;5.07;;;;;;;26.22;38.79;95723.06;5051782;28;20017;-72
2021/09/30 11:57:59;;;;;;;8.98;5.20;;;;;;;26.15;38.91;95718.13;5055564;28;20036;-72
2021/09/30 12:00:25;;;;;;;9.52;5.60;;;;;;;26.12;39.02;95719.13;5048000;28;20060;-68
2021/09/30 12:02:58;;;;;;;7.35;5.20;;;;;;;25.93;38.79;95696.41;5033548;28;20566;-75
2021/09/30 12:05:25;;;;;;;7.47;5.15;;;;;;;26.05;38.89;95708.75;5030576;28;20423;-73
2021/09/30 12:07:51;;;;;;;8.25;5.32;;;;;;;26.01;39.27;95724.72;5029269;28;20438;-75
2021/09/30 12:10:17;;;;;;;7.88;5.07;;;;;;;25.88;39.15;95699.91;5030532;28;20014;-74
2021/09/30 12:12:46;;;;;;;9.30;5.35;;;;;;;25.93;39.23;95712.84;5046808;28;20051;-74
2021/09/30 12:15:11;;;;;;;10.48;6.50;;;;;;;25.90;38.96;95719.31;5046664;28;20026;-75
2021/09/30 12:17:38;;;;;;;8.43;5.25;;;;;;;25.88;38.94;95732.75;5031641;28;20157;-74
2021/09/30 12:20:06;;;;;;;8.15;5.47;;;;;;;25.82;39.02;95718.38;4978915;28;20033;-74
2021/09/30 12:22:38;;;;;;;8.85;5.30;;;;;;;25.79;39.53;95724.84;5008422;28;20029;-75
2021/09/30 12:25:06;;;;;;;7.28;4.72;;;;;;;25.72;39.56;95713.72;5006425;28;20053;-75
2021/09/30 12:27:33;;;;;;;7.53;5.40;;;;;;;25.71;39.27;95722.44;5013843;28;20112;-74
2021/09/30 12:30:10;;;;;;;10.00;5.38;;;;;;;25.64;39.48;95717.50;5012450;28;20021;-74
2021/09/30 12:32:38;;;;;;;9.35;5.40;;;;;;;25.60;39.44;95717.00;5017332;28;20060;-74
2021/09/30 12:35:31;;;;;;;6.85;5.13;;;;;;;25.58;39.60;95714.06;5031755;28;20049;-74
2021/09/30 12:37:58;;;;;;;8.68;5.30;;;;;;;25.56;39.25;95711.06;5006052;28;20098;-74
2021/09/30 12:40:28;;;;;;;7.72;5.25;;;;;;;25.32;39.43;95680.91;5009970;28;20060;-74
2021/09/30 12:42:56;;;;;;;7.93;5.32;;;;;;;25.48;39.96;95710.13;5006635;28;20029;-74
2021/09/30 12:45:22;;;;;;;8.52;5.05;;;;;;;25.46;39.97;95712.63;5017272;28;20037;-74
2021/09/30 12:47:47;;;;;;;9.82;5.82;;;;;;;25.44;39.98;95704.16;5018553;28;20040;-75
2021/09/30 12:50:18;;;;;;;8.07;5.47;;;;;;;25.40;39.97;95704.44;5013349;28;20404;-74
2021/09/30 12:52:44;;;;;;;8.05;5.22;;;;;;;25.39;40.03;95713.16;5016405;28;20140;-74
2021/09/30 12:55:16;;;;;;;8.48;5.32;;;;;;;25.36;40.01;95709.44;5026584;28;20053;-75
2021/09/30 12:57:41;;;;;;;8.63;5.85;;;;;;;25.33;40.18;95715.16;5014167;28;20064;-76
2021/09/30 13:00:11;;;;;;;7.95;5.50;;;;;;;25.32;40.38;95708.25;5023689;28;20021;-75
2021/09/30 13:02:37;;;;;;;8.45;5.18;;;;;;;25.26;40.50;95704.78;5020298;28;20061;-75
2021/09/30 13:05:02;;;;;;;9.95;5.65;;;;;;;25.26;40.48;95710.25;5021799;28;20434;-75
2021/09/30 13:07:47;;;;;;;9.77;5.70;;;;;;;25.25;40.45;95714.22;5020661;28;20439;-75
2021/09/30 13:10:14;;;;;;;8.00;5.22;;;;;;;25.22;40.51;95709.78;5037433;28;20135;-74
2021/09/30 13:12:40;;;;;;;7.82;5.20;;;;;;;25.17;40.69;95707.06;5009871;28;20044;-73
2021/09/30 13:15:06;;;;;;;9.10;5.53;;;;;;;25.19;40.67;95721.72;5008210;28;20022;-75
2021/09/30 13:17:31;;;;;;;7.80;5.50;;;;;;;25.17;40.44;95713.28;5035414;28;20108;-75
2021/09/30 13:20:06;;;;;;;7.30;5.18;;;;;;;25.15;40.83;95710.28;5023992;28;20025;-74
2021/09/30 13:22:42;;;;;;;8.80;5.00;;;;;;;25.14;40.84;95719.00;5021333;28;20462;-74
2021/09/30 13:25:08;;;;;;;7.38;5.38;;;;;;;25.10;41.00;95707.59;5024711;28;20022;-75
2021/09/30 13:27:35;;;;;;;7.43;5.30;;;;;;;25.09;40.79;95717.78;5021355;28;20030;-74
2021/09/30 13:30:05;;;;;;;8.70;5.50;;;;;;;25.07;40.86;95725.75;5024158;28;20521;-74
2021/09/30 13:32:31;;;;;;;7.93;5.35;;;;;;;25.05;40.82;95711.06;5028236;28;20605;-74
2021/09/30 13:34:57;;;;;;;9.70;5.18;;;;;;;24.91;41.01;95701.91;5027167;28;20025;-74
2021/09/30 13:37:22;;;;;;;6.53;4.70;;;;;;;25.00;40.94;95709.13;5027286;28;20564;-74
2021/09/30 13:39:48;;;;;;;6.57;4.63;;;;;;;24.98;40.96;95706.88;5014223;28;20018;-74
2021/09/30 13:42:13;;;;;;;8.23;5.05;;;;;;;24.96;41.08;95709.38;5012345;28;20473;-72
2021/09/30 13:44:39;;;;;;;8.02;5.22;;;;;;;24.94;41.21;95711.84;5019928;28;20021;-71
2021/09/30 13:47:05;;;;;;;6.22;4.60;;;;;;;24.92;41.38;95703.41;5010703;28;20033;-72
2021/09/30 13:49:30;;;;;;;7.00;4.45;;;;;;;24.90;41.56;95694.97;5013643;28;20022;-72
2021/09/30 13:51:56;;;;;;;7.38;4.75;;;;;;;24.87;41.39;95695.97;5027733;28;20557;-71
2021/09/30 13:54:21;;;;;;;6.55;4.72;;;;;;;24.89;41.34;95693.47;5028659;28;20044;-71
2021/09/30 13:56:47;;;;;;;6.18;3.70;;;;;;;24.89;41.35;95698.94;5044754;28;20029;-71
2021/09/30 13:59:12;;;;;;;6.82;4.53;;;;;;;24.89;41.64;95693.47;5029872;28;20029;-72
2021/09/30 14:01:38;;;;;;;6.65;4.45;;;;;;;24.89;41.68;95690.75;5040567;28;20037;-75
2021/09/30 14:04:03;;;;;;;6.75;4.10;;;;;;;24.89;41.57;95688.03;5034711;28;20054;-73
2021/09/30 14:06:29;;;;;;;5.53;4.00;;;;;;;24.89;41.41;95693.47;5019659;28;20509;-76
2021/09/30 14:08:55;;;;;;;7.53;4.47;;;;;;;24.89;41.38;95698.94;5033147;28;20039;-81
2021/09/30 14:11:22;;;;;;;6.57;4.60;;;;;;;24.67;41.66;95653.84;5031835;28;20048;-82
2021/09/30 14:13:48;;;;;;;8.48;4.55;;;;;;;24.86;41.71;95694.47;5018184;28;20084;-80
2021/09/30 14:16:13;;;;;;;6.63;4.60;;;;;;;24.92;41.26;95703.41;5034863;28;20017;-75
2021/09/30 14:18:39;;;;;;;7.95;4.38;;;;;;;24.95;41.37;95696.19;5031776;28;20404;-77
2021/09/30 14:21:04;;;;;;;7.55;3.97;;;;;;;24.99;41.39;95697.47;5034810;28;20028;-75
2021/09/30 14:23:30;;;;;;;7.22;4.60;;;;;;;25.03;41.38;95703.38;5039549;28;20029;-77